New Albany, Kansas
Current Conditions -  °F | °C
As of 3:52 AM on Sunday 21 Dec 2014 (Local Time) from KCNU Reporting Station
Overcast Overcast  
Wind Chill: 33°   Ceiling: 1000
Heat Index: 40°   Visibility: 8mi
Dew Point: 38°   Wind: 10mph
Humidity: 93%   Direction: 200°SSW
Pressure: 30.09"   Gusts: NA
Location:  37.57°N, 95.94°W
Report Text: KCNU 210952Z AUTO 20009KT 8SM OVC010 04/03 A3009 RMK AO2 SLP192 T00440033
Loading
Personal Weather Stations






























Interactive Weather Map New forecast layout! Learn more

10-Day Weather Forecast

Advertisements
Track Severe Weather on mobile